Time;durP1;ratioP1;P1;durP2;ratioP2;P2;SDS_P1;SDS_P2;PMS_P1;PMS_P2;Temp;Humidity;BMP_temperature;BMP_pressure;BME280_temperature;BME280_humidity;BME280_pressure;Samples;Min_cycle;Max_cycle;Signal;HPM_P1;HPM_P2
2021/10/22 00:00:16;;;;;;;56.45;33.58;;;;;;;;;;5051126;28;20074;-40
2021/10/22 00:02:42;;;;;;;67.32;44.85;;;;;;;;;;5055059;28;20024;-40
2021/10/22 00:05:09;;;;;;;60.67;34.85;;;;;;;;;;5056382;28;20103;-42
2021/10/22 00:07:35;;;;;;;58.70;38.97;;;;;;;;;;5056090;28;20051;-46
2021/10/22 00:10:02;;;;;;;70.88;43.65;;;;;;;;;;5056163;28;20040;-48
2021/10/22 00:12:28;;;;;;;90.50;46.60;;;;;;;;;;5055521;28;20025;-42
2021/10/22 00:14:54;;;;;;;64.05;36.65;;;;;;;;;;5056008;28;20226;-43
2021/10/22 00:17:21;;;;;;;46.45;30.88;;;;;;;;;;5056192;28;20028;-41
2021/10/22 00:19:47;;;;;;;52.47;31.40;;;;;;;;;;5055879;28;20032;-39
2021/10/22 00:22:14;;;;;;;44.33;28.55;;;;;;;;;;5054537;28;20201;-41
2021/10/22 00:24:40;;;;;;;45.88;26.80;;;;;;;;;;5055621;28;20484;-42
2021/10/22 00:27:06;;;;;;;45.03;27.90;;;;;;;;;;5055693;28;20053;-42
2021/10/22 00:29:35;;;;;;;43.40;24.38;;;;;;;;;;5055833;28;20049;-44
2021/10/22 00:32:01;;;;;;;47.10;27.65;;;;;;;;;;5055663;28;20024;-42
2021/10/22 00:34:28;;;;;;;44.85;27.25;;;;;;;;;;5055651;28;20094;-42
2021/10/22 00:36:55;;;;;;;62.55;40.95;;;;;;;;;;5055556;28;20021;-40
2021/10/22 00:39:21;;;;;;;78.82;47.00;;;;;;;;;;5055546;28;20457;-42
2021/10/22 00:41:49;;;;;;;71.10;42.15;;;;;;;;;;5055577;28;20024;-42
2021/10/22 00:44:15;;;;;;;49.90;31.02;;;;;;;;;;5055503;28;20032;-43
2021/10/22 00:46:41;;;;;;;41.95;28.23;;;;;;;;;;5055518;28;20465;-42
2021/10/22 00:49:11;;;;;;;39.97;26.00;;;;;;;;;;5055365;28;20029;-42
2021/10/22 00:51:37;;;;;;;45.13;28.40;;;;;;;;;;5055327;28;20025;-40
2021/10/22 00:54:05;;;;;;;35.80;21.80;;;;;;;;;;5055278;28;20025;-43
2021/10/22 00:56:36;;;;;;;38.70;20.85;;;;;;;;;;5055090;28;20094;-42
2021/10/22 00:59:06;;;;;;;44.38;28.40;;;;;;;;;;5054155;28;20386;-42
2021/10/22 01:01:38;;;;;;;88.05;57.80;;;;;;;;;;5055216;28;20407;-43
2021/10/22 01:04:04;;;;;;;57.90;42.35;;;;;;;;;;5055013;28;20374;-41
2021/10/22 01:06:30;;;;;;;43.30;30.52;;;;;;;;;;5055099;28;20021;-42
2021/10/22 01:08:57;;;;;;;53.47;29.33;;;;;;;;;;5055093;28;20025;-44
2021/10/22 01:11:23;;;;;;;49.85;30.55;;;;;;;;;;5054897;28;20384;-39
2021/10/22 01:13:50;;;;;;;35.67;20.80;;;;;;;;;;5054995;28;20056;-40
2021/10/22 01:16:16;;;;;;;47.95;25.77;;;;;;;;;;5054888;28;20112;-40
2021/10/22 01:18:43;;;;;;;49.55;20.75;;;;;;;;;;5054766;28;20025;-40
2021/10/22 01:21:11;;;;;;;29.20;16.35;;;;;;;;;;5054712;28;20040;-40
2021/10/22 01:23:37;;;;;;;22.55;11.93;;;;;;;;;;5054733;28;20025;-40
2021/10/22 01:26:03;;;;;;;22.33;11.38;;;;;;;;;;5054427;28;20092;-39
2021/10/22 01:28:29;;;;;;;31.58;15.60;;;;;;;;;;5054610;28;20032;-42
2021/10/22 01:30:57;;;;;;;25.40;14.13;;;;;;;;;;5054070;28;20021;-42
2021/10/22 01:33:24;;;;;;;23.30;11.65;;;;;;;;;;5054525;28;20503;-40
2021/10/22 01:35:51;;;;;;;16.30;9.43;;;;;;;;;;5054331;28;20040;-39
2021/10/22 01:38:20;;;;;;;31.58;18.33;;;;;;;;;;5054656;28;20017;-40
2021/10/22 01:40:46;;;;;;;37.80;28.60;;;;;;;;;;5054747;28;20044;-40
2021/10/22 01:43:15;;;;;;;33.72;22.15;;;;;;;;;;5054595;28;20112;-41
2021/10/22 01:45:41;;;;;;;21.85;11.45;;;;;;;;;;5054422;28;20021;-40
2021/10/22 01:48:08;;;;;;;14.70;9.63;;;;;;;;;;5054495;28;20055;-41
2021/10/22 01:50:34;;;;;;;21.08;10.52;;;;;;;;;;5054217;28;20021;-39
2021/10/22 01:53:02;;;;;;;18.30;9.75;;;;;;;;;;5054355;28;20022;-41
2021/10/22 01:55:28;;;;;;;30.73;15.20;;;;;;;;;;5054158;28;20067;-39
2021/10/22 01:57:55;;;;;;;20.85;10.35;;;;;;;;;;5054152;28;20021;-40
2021/10/22 02:00:21;;;;;;;23.45;10.93;;;;;;;;;;5054188;28;20039;-40
2021/10/22 02:02:47;;;;;;;27.70;12.55;;;;;;;;;;5054020;28;20052;-40
2021/10/22 02:05:13;;;;;;;24.45;11.63;;;;;;;;;;5054053;28;20032;-40
2021/10/22 02:07:39;;;;;;;20.52;9.30;;;;;;;;;;5054095;28;20373;-41
2021/10/22 02:10:09;;;;;;;13.35;6.93;;;;;;;;;;5053889;28;20021;-42
2021/10/22 02:12:35;;;;;;;15.48;8.02;;;;;;;;;;5053779;28;20501;-39
2021/10/22 02:15:02;;;;;;;14.60;8.77;;;;;;;;;;5053679;28;20041;-39
2021/10/22 02:17:31;;;;;;;8.73;5.35;;;;;;;;;;5053814;28;20045;-41
2021/10/22 02:19:57;;;;;;;16.58;8.63;;;;;;;;;;5053681;28;20104;-40
2021/10/22 02:22:24;;;;;;;16.92;8.32;;;;;;;;;;5053874;28;20381;-41
2021/10/22 02:24:50;;;;;;;15.73;8.27;;;;;;;;;;5053470;28;20185;-40
2021/10/22 02:27:16;;;;;;;8.45;4.72;;;;;;;;;;5053533;28;20059;-41
2021/10/22 02:29:42;;;;;;;10.82;6.30;;;;;;;;;;5053552;28;20498;-40
2021/10/22 02:32:08;;;;;;;14.57;8.40;;;;;;;;;;5053676;28;20489;-40
2021/10/22 02:34:34;;;;;;;5.18;3.63;;;;;;;;;;5053479;28;20021;-40
2021/10/22 02:37:00;;;;;;;10.00;5.50;;;;;;;;;;5053489;28;20044;-39
2021/10/22 02:39:32;;;;;;;11.38;5.88;;;;;;;;;;5053612;28;20032;-40
2021/10/22 02:41:58;;;;;;;;;;;;;;;;;;5053190;28;20171;-40
2021/10/22 02:44:24;;;;;;;9.13;4.72;;;;;;;;;;5053317;28;20404;-40
2021/10/22 02:46:50;;;;;;;6.10;4.05;;;;;;;;;;5053431;28;20021;-40
2021/10/22 02:49:16;;;;;;;5.82;2.80;;;;;;;;;;5053329;28;20047;-39
2021/10/22 02:51:42;;;;;;;10.52;6.75;;;;;;;;;;5053398;28;20021;-40
2021/10/22 02:54:08;;;;;;;10.43;4.70;;;;;;;;;;5053410;28;20036;-43
2021/10/22 02:56:34;;;;;;;12.07;5.47;;;;;;;;;;5053270;28;20040;-42
2021/10/22 02:59:00;;;;;;;3.67;2.70;;;;;;;;;;5053097;28;20025;-40
2021/10/22 03:01:27;;;;;;;8.88;5.60;;;;;;;;;;5053216;28;20057;-40
2021/10/22 03:03:53;;;;;;;10.60;5.80;;;;;;;;;;5052893;28;20029;-40
2021/10/22 03:06:21;;;;;;;8.43;2.60;;;;;;;;;;5053317;28;20078;-41
2021/10/22 03:08:48;;;;;;;9.65;3.13;;;;;;;;;;5053050;28;20506;-40
2021/10/22 03:11:14;;;;;;;5.68;3.03;;;;;;;;;;5053126;28;20480;-40
2021/10/22 03:13:40;;;;;;;4.57;2.67;;;;;;;;;;5053077;28;20021;-40
2021/10/22 03:16:06;;;;;;;7.57;4.05;;;;;;;;;;5053086;28;20497;-41
2021/10/22 03:18:32;;;;;;;7.40;3.95;;;;;;;;;;5052963;28;20484;-44
2021/10/22 03:20:58;;;;;;;3.53;1.73;;;;;;;;;;5053200;28;20033;-43
2021/10/22 03:23:24;;;;;;;6.78;3.25;;;;;;;;;;5053406;28;20021;-41
2021/10/22 03:25:50;;;;;;;4.60;2.25;;;;;;;;;;5052853;28;20045;-43
2021/10/22 03:28:16;;;;;;;6.20;3.67;;;;;;;;;;5052990;28;20021;-41
2021/10/22 03:30:46;;;;;;;7.53;2.80;;;;;;;;;;5053058;28;20025;-42
2021/10/22 03:33:12;;;;;;;3.72;1.73;;;;;;;;;;5052845;28;20504;-41
2021/10/22 03:35:38;;;;;;;10.68;6.03;;;;;;;;;;5052778;28;20048;-43
2021/10/22 03:38:05;;;;;;;12.07;7.53;;;;;;;;;;5053051;28;20025;-41
2021/10/22 03:40:31;;;;;;;13.25;7.50;;;;;;;;;;5052984;28;20033;-40
2021/10/22 03:42:58;;;;;;;13.18;8.80;;;;;;;;;;5052840;28;20021;-41
2021/10/22 03:45:25;;;;;;;18.48;12.23;;;;;;;;;;5052855;28;20017;-41
2021/10/22 03:47:54;;;;;;;22.20;12.02;;;;;;;;;;5052834;28;20561;-41
2021/10/22 03:50:21;;;;;;;18.80;12.63;;;;;;;;;;5052765;28;20017;-40
2021/10/22 03:52:49;;;;;;;20.25;13.90;;;;;;;;;;5052848;28;20029;-40
2021/10/22 03:55:16;;;;;;;13.80;10.73;;;;;;;;;;5056181;28;20060;-41
2021/10/22 03:57:44;;;;;;;12.10;8.23;;;;;;;;;;5056534;28;20040;-40
2021/10/22 04:00:11;;;;;;;11.63;6.00;;;;;;;;;;5056559;28;20021;-41
2021/10/22 04:02:37;;;;;;;10.30;6.22;;;;;;;;;;5056442;28;20025;-40
2021/10/22 04:05:06;;;;;;;8.80;5.18;;;;;;;;;;5056370;28;20032;-41
2021/10/22 04:07:32;;;;;;;13.98;5.55;;;;;;;;;;5056386;28;20056;-41
2021/10/22 04:09:59;;;;;;;4.60;2.78;;;;;;;;;;5056713;28;20025;-42
2021/10/22 04:12:25;;;;;;;8.13;2.50;;;;;;;;;;5056369;28;20027;-41
2021/10/22 04:14:51;;;;;;;10.75;4.95;;;;;;;;;;5056064;28;20053;-41
2021/10/22 04:17:17;;;;;;;4.93;2.63;;;;;;;;;;5056142;28;20033;-41
2021/10/22 04:19:46;;;;;;;8.35;4.07;;;;;;;;;;5055887;28;20025;-40
2021/10/22 04:22:12;;;;;;;8.00;1.58;;;;;;;;;;5056098;28;20511;-40
2021/10/22 04:24:38;;;;;;;4.97;2.95;;;;;;;;;;5055782;28;20052;-40
2021/10/22 04:27:07;;;;;;;5.97;2.60;;;;;;;;;;5055821;28;20028;-40
2021/10/22 04:29:33;;;;;;;4.07;1.63;;;;;;;;;;5055847;28;20028;-40
2021/10/22 04:32:01;;;;;;;6.07;2.33;;;;;;;;;;5055860;28;20025;-42
2021/10/22 04:34:28;;;;;;;2.65;1.27;;;;;;;;;;5054446;28;20501;-40
2021/10/22 04:37:02;;;;;;;6.88;3.92;;;;;;;;;;5055082;28;20503;-40
2021/10/22 04:42:15;;;;;;;6.90;2.15;;;;;;;;;;5054961;28;20396;-41
2021/10/22 04:44:41;;;;;;;9.00;4.25;;;;;;;;;;5054827;28;20035;-41
2021/10/22 04:47:07;;;;;;;10.77;2.92;;;;;;;;;;5055135;28;20025;-41
2021/10/22 04:49:33;;;;;;;12.75;6.65;;;;;;;;;;5055570;28;20111;-40
2021/10/22 04:51:59;;;;;;;19.60;10.75;;;;;;;;;;5055494;28;20431;-40
2021/10/22 04:54:28;;;;;;;16.48;8.75;;;;;;;;;;5055434;28;20060;-40
2021/10/22 04:56:54;;;;;;;7.20;3.42;;;;;;;;;;5055348;28;20150;-40
2021/10/22 04:59:20;;;;;;;6.00;2.40;;;;;;;;;;5055176;28;20100;-40
2021/10/22 05:01:46;;;;;;;8.68;4.20;;;;;;;;;;5054817;28;20108;-41
2021/10/22 05:04:12;;;;;;;28.42;18.30;;;;;;;;;;5054720;28;20480;-38
2021/10/22 05:06:38;;;;;;;25.70;14.02;;;;;;;;;;5054312;28;20025;-42
2021/10/22 05:09:04;;;;;;;7.32;3.40;;;;;;;;;;5054870;28;20017;-41
2021/10/22 05:11:30;;;;;;;10.45;6.25;;;;;;;;;;5054936;28;20418;-39
2021/10/22 05:13:56;;;;;;;25.10;14.55;;;;;;;;;;5054836;28;20036;-42
2021/10/22 05:16:24;;;;;;;32.15;15.00;;;;;;;;;;5054603;28;20041;-42
2021/10/22 05:18:50;;;;;;;7.70;2.90;;;;;;;;;;5053472;28;20021;-42
2021/10/22 05:21:18;;;;;;;17.05;8.38;;;;;;;;;;5054674;28;20021;-39
2021/10/22 05:23:45;;;;;;;5.28;2.58;;;;;;;;;;5054657;28;20515;-42
2021/10/22 05:26:11;;;;;;;3.75;2.47;;;;;;;;;;5054436;28;20056;-41
2021/10/22 05:28:40;;;;;;;9.90;7.95;;;;;;;;;;5054578;28;20021;-39
2021/10/22 05:31:06;;;;;;;18.88;11.35;;;;;;;;;;5054469;28;20067;-39
2021/10/22 05:33:32;;;;;;;15.88;8.85;;;;;;;;;;5054558;28;20507;-39
2021/10/22 05:35:58;;;;;;;9.57;6.45;;;;;;;;;;5054534;28;20040;-40
2021/10/22 05:38:26;;;;;;;11.25;5.80;;;;;;;;;;5054313;28;20047;-41
2021/10/22 05:40:52;;;;;;;11.38;5.53;;;;;;;;;;5054279;28;20060;-40
2021/10/22 05:43:18;;;;;;;10.10;4.63;;;;;;;;;;5054506;28;20461;-40
2021/10/22 05:45:44;;;;;;;7.70;4.82;;;;;;;;;;5054269;28;20150;-40
2021/10/22 05:48:11;;;;;;;18.55;9.90;;;;;;;;;;5054503;28;20484;-40
2021/10/22 05:50:39;;;;;;;25.58;12.00;;;;;;;;;;5054211;28;20469;-40
2021/10/22 05:53:06;;;;;;;21.95;10.13;;;;;;;;;;5054271;28;20015;-40
2021/10/22 05:55:32;;;;;;;15.63;6.45;;;;;;;;;;5054133;28;20537;-40
2021/10/22 05:58:00;;;;;;;15.20;6.72;;;;;;;;;;5054165;28;20042;-40
2021/10/22 06:00:26;;;;;;;14.60;7.22;;;;;;;;;;5054056;28;20021;-39
2021/10/22 06:02:53;;;;;;;14.02;6.18;;;;;;;;;;5054138;28;20076;-40
2021/10/22 06:05:20;;;;;;;10.27;4.85;;;;;;;;;;5054156;28;20059;-41
2021/10/22 06:07:46;;;;;;;8.55;3.92;;;;;;;;;;5054124;28;20051;-51
2021/10/22 06:10:12;;;;;;;6.85;3.42;;;;;;;;;;5054078;28;20025;-45
2021/10/22 06:12:40;;;;;;;9.98;4.00;;;;;;;;;;5054179;28;20021;-41
2021/10/22 06:15:07;;;;;;;7.43;3.72;;;;;;;;;;5053802;28;20025;-41
2021/10/22 06:17:33;;;;;;;7.32;3.83;;;;;;;;;;5053937;28;20029;-40
2021/10/22 06:20:07;;;;;;;7.43;3.78;;;;;;;;;;5053906;28;20465;-40
2021/10/22 06:22:38;;;;;;;8.10;3.55;;;;;;;;;;5053786;28;20025;-40
2021/10/22 06:25:05;;;;;;;6.50;3.50;;;;;;;;;;5053510;28;20045;-40
2021/10/22 06:27:31;;;;;;;7.45;3.88;;;;;;;;;;5053634;28;20035;-41
2021/10/22 06:29:57;;;;;;;7.18;3.50;;;;;;;;;;5053400;28;20029;-41
2021/10/22 06:32:23;;;;;;;12.10;4.20;;;;;;;;;;5053498;28;20024;-42
2021/10/22 06:34:54;;;;;;;13.35;5.40;;;;;;;;;;5053768;28;20053;-42
2021/10/22 06:37:20;;;;;;;19.15;9.02;;;;;;;;;;5053354;28;20033;-42
2021/10/22 06:39:48;;;;;;;19.75;10.32;;;;;;;;;;5053700;28;20025;-41
2021/10/22 06:42:14;;;;;;;16.35;8.93;;;;;;;;;;5053288;28;20095;-42
2021/10/22 06:44:43;;;;;;;26.05;11.32;;;;;;;;;;5053035;28;20025;-42
2021/10/22 06:47:09;;;;;;;25.00;11.85;;;;;;;;;;5053585;28;20026;-40
2021/10/22 06:49:35;;;;;;;26.92;12.25;;;;;;;;;;5053243;28;20075;-40
2021/10/22 06:52:02;;;;;;;19.85;9.98;;;;;;;;;;5053469;28;20017;-42
2021/10/22 06:54:28;;;;;;;24.80;11.13;;;;;;;;;;5053149;28;20036;-41
2021/10/22 06:56:54;;;;;;;25.33;10.20;;;;;;;;;;5053421;28;20041;-41
2021/10/22 06:59:23;;;;;;;20.38;10.43;;;;;;;;;;5053316;28;20070;-41
2021/10/22 07:01:51;;;;;;;20.77;10.23;;;;;;;;;;5053254;28;20032;-41
2021/10/22 07:04:18;;;;;;;25.05;11.07;;;;;;;;;;5053253;28;20030;-41
2021/10/22 07:09:39;;;;;;;15.00;8.52;;;;;;;;;;5031115;28;20529;-42
2021/10/22 07:12:07;;;;;;;14.40;7.35;;;;;;;;;;5031043;28;20446;-41
2021/10/22 07:14:35;;;;;;;17.60;8.68;;;;;;;;;;5031154;28;20034;-41
2021/10/22 07:17:03;;;;;;;22.33;10.13;;;;;;;;;;5031024;28;20403;-41
2021/10/22 07:19:29;;;;;;;35.08;16.05;;;;;;;;;;5030851;28;20037;-41
2021/10/22 07:21:59;;;;;;;30.25;15.40;;;;;;;;;;5030957;28;20520;-41
2021/10/22 07:24:25;;;;;;;35.25;17.38;;;;;;;;;;5030654;28;20100;-40
2021/10/22 07:26:51;;;;;;;28.05;15.57;;;;;;;;;;5030996;28;20136;-42
2021/10/22 07:29:18;;;;;;;28.38;17.33;;;;;;;;;;5033430;28;20060;-41
2021/10/22 07:31:44;;;;;;;34.70;18.55;;;;;;;;;;5035109;28;20034;-41
2021/10/22 07:34:14;;;;;;;36.30;18.95;;;;;;;;;;5034538;28;20029;-40
2021/10/22 07:36:40;;;;;;;29.20;16.42;;;;;;;;;;5034641;28;20037;-43
2021/10/22 07:39:06;;;;;;;25.17;14.32;;;;;;;;;;5034615;28;20025;-40
2021/10/22 07:41:32;;;;;;;24.20;13.57;;;;;;;;;;5034628;28;20025;-41
2021/10/22 07:43:59;;;;;;;23.75;13.98;;;;;;;;;;5034609;28;20409;-41
2021/10/22 07:46:25;;;;;;;16.42;10.70;;;;;;;;;;5049020;28;20028;-41
2021/10/22 07:48:51;;;;;;;21.15;11.30;;;;;;;;;;5056619;28;20036;-41
2021/10/22 07:51:17;;;;;;;18.10;10.80;;;;;;;;;;5056605;28;20021;-41
2021/10/22 07:53:45;;;;;;;25.60;13.25;;;;;;;;;;5056387;28;20117;-41
2021/10/22 07:56:12;;;;;;;29.27;15.30;;;;;;;;;;5056527;28;20174;-41
2021/10/22 07:58:38;;;;;;;22.00;12.00;;;;;;;;;;5056557;28;20021;-41
2021/10/22 08:01:04;;;;;;;19.90;10.20;;;;;;;;;;5056411;28;20456;-40
2021/10/22 08:03:30;;;;;;;23.90;13.27;;;;;;;;;;5056501;28;20096;-42
2021/10/22 08:05:56;;;;;;;24.83;14.27;;;;;;;;;;5056396;28;20104;-41
2021/10/22 08:08:24;;;;;;;50.08;22.88;;;;;;;;;;5054992;28;20425;-41
2021/10/22 08:10:51;;;;;;;19.67;9.75;;;;;;;;;;5056227;28;20035;-41
2021/10/22 08:13:17;;;;;;;14.00;8.57;;;;;;;;;;5056173;28;20084;-41
2021/10/22 08:15:43;;;;;;;13.23;7.50;;;;;;;;;;5056144;28;20033;-41
2021/10/22 08:18:14;;;;;;;19.00;8.68;;;;;;;;;;5056160;28;20029;-45
2021/10/22 08:20:47;;;;;;;17.95;8.98;;;;;;;;;;5056095;28;20104;-42
2021/10/22 08:23:13;;;;;;;15.27;7.45;;;;;;;;;;5055829;28;20436;-42
2021/10/22 08:25:39;;;;;;;14.90;7.88;;;;;;;;;;5055667;28;20102;-40
2021/10/22 08:28:05;;;;;;;12.40;6.07;;;;;;;;;;5055839;28;20488;-43
2021/10/22 08:30:32;;;;;;;13.20;7.97;;;;;;;;;;5055873;28;20044;-41
2021/10/22 08:32:58;;;;;;;14.80;6.13;;;;;;;;;;5055792;28;20052;-42
2021/10/22 08:35:30;;;;;;;10.77;6.05;;;;;;;;;;5055742;28;20518;-44
2021/10/22 08:37:56;;;;;;;10.30;4.60;;;;;;;;;;5054312;28;20033;-43
2021/10/22 08:40:23;;;;;;;8.95;5.75;;;;;;;;;;5054453;28;20044;-44
2021/10/22 08:42:51;;;;;;;12.10;6.65;;;;;;;;;;5055763;28;20067;-44
2021/10/22 08:45:18;;;;;;;10.40;6.50;;;;;;;;;;5055668;28;20028;-41
2021/10/22 08:47:44;;;;;;;5.40;4.00;;;;;;;;;;5055513;28;20032;-42
2021/10/22 08:50:18;;;;;;;11.52;5.55;;;;;;;;;;5054410;28;20460;-41
2021/10/22 08:52:45;;;;;;;5.90;4.07;;;;;;;;;;5055660;28;20469;-42
2021/10/22 08:55:12;;;;;;;6.82;3.88;;;;;;;;;;5055358;28;20029;-42
2021/10/22 08:57:42;;;;;;;8.63;3.22;;;;;;;;;;5055443;28;20382;-40
2021/10/22 09:00:09;;;;;;;5.32;2.83;;;;;;;;;;5055348;28;20079;-40
2021/10/22 09:02:35;;;;;;;5.47;2.63;;;;;;;;;;5055325;28;20112;-41
2021/10/22 09:05:16;;;;;;;5.35;3.05;;;;;;;;;;5055266;28;20029;-41
2021/10/22 09:07:42;;;;;;;6.28;3.85;;;;;;;;;;5055339;28;20048;-43
2021/10/22 09:10:10;;;;;;;6.30;3.08;;;;;;;;;;5055060;28;20028;-43
2021/10/22 09:12:47;;;;;;;9.63;4.45;;;;;;;;;;5053633;28;20388;-42
2021/10/22 09:15:14;;;;;;;11.75;5.28;;;;;;;;;;5055006;28;20029;-40
2021/10/22 09:17:41;;;;;;;18.40;10.32;;;;;;;;;;5054838;28;20354;-40
2021/10/22 09:20:09;;;;;;;19.88;10.95;;;;;;;;;;5054826;28;20025;-41
2021/10/22 09:22:35;;;;;;;21.45;12.57;;;;;;;;;;5055136;28;20052;-41
2021/10/22 09:25:04;;;;;;;27.98;15.55;;;;;;;;;;5054789;28;20098;-44
2021/10/22 09:27:30;;;;;;;38.25;21.67;;;;;;;;;;5054799;28;20041;-41
2021/10/22 09:29:57;;;;;;;21.85;13.05;;;;;;;;;;5054628;28;20044;-41
2021/10/22 09:32:23;;;;;;;40.05;23.13;;;;;;;;;;5054758;28;20025;-41
2021/10/22 09:34:51;;;;;;;28.35;17.05;;;;;;;;;;5054475;28;20021;-42
2021/10/22 09:37:17;;;;;;;30.58;17.27;;;;;;;;;;5054499;28;20037;-41
2021/10/22 09:39:43;;;;;;;24.02;13.82;;;;;;;;;;5054622;28;20028;-41
2021/10/22 09:42:11;;;;;;;15.88;11.52;;;;;;;;;;5054586;28;20032;-41
2021/10/22 09:44:41;;;;;;;24.02;15.98;;;;;;;;;;5052407;28;20092;-40
2021/10/22 09:47:07;;;;;;;33.53;18.42;;;;;;;;;;5053835;28;20439;-41
2021/10/22 09:49:36;;;;;;;81.20;48.45;;;;;;;;;;5053685;28;20386;-43
2021/10/22 09:52:03;;;;;;;52.22;30.83;;;;;;;;;;5053375;28;20025;-41
2021/10/22 09:54:33;;;;;;;29.33;18.83;;;;;;;;;;5052376;28;20485;-39
2021/10/22 09:57:07;;;;;;;15.10;9.75;;;;;;;;;;5053485;28;20048;-39
2021/10/22 09:59:37;;;;;;;17.35;10.18;;;;;;;;;;5050858;28;20032;-40
2021/10/22 10:02:07;;;;;;;11.13;7.55;;;;;;;;;;5053491;28;20372;-42
2021/10/22 10:04:33;;;;;;;16.95;9.80;;;;;;;;;;5050978;28;20036;-41
2021/10/22 10:07:00;;;;;;;20.80;11.52;;;;;;;;;;5053395;28;20072;-40
2021/10/22 10:09:27;;;;;;;11.77;5.57;;;;;;;;;;5053437;28;20025;-42
2021/10/22 10:11:54;;;;;;;10.27;5.60;;;;;;;;;;5050692;28;20035;-41
2021/10/22 10:14:23;;;;;;;26.17;11.60;;;;;;;;;;5053204;28;20063;-39
2021/10/22 10:16:50;;;;;;;32.58;16.13;;;;;;;;;;5052952;28;20032;-41
2021/10/22 10:19:20;;;;;;;29.17;13.32;;;;;;;;;;5053243;28;20606;-39
2021/10/22 10:21:51;;;;;;;31.00;11.88;;;;;;;;;;5053337;28;20025;-39
2021/10/22 10:24:19;;;;;;;30.80;15.13;;;;;;;;;;5050620;28;20037;-41
2021/10/22 10:26:45;;;;;;;13.73;6.85;;;;;;;;;;5053073;28;20033;-41
2021/10/22 10:29:27;;;;;;;13.85;8.10;;;;;;;;;;5053086;28;20013;-41
2021/10/22 10:32:02;;;;;;;15.65;7.47;;;;;;;;;;5041999;28;20807;-41
2021/10/22 10:34:31;;;;;;;17.02;9.75;;;;;;;;;;5022241;28;20465;-40
2021/10/22 10:36:59;;;;;;;18.23;9.27;;;;;;;;;;5022582;28;20106;-41
2021/10/22 10:39:44;;;;;;;18.50;7.10;;;;;;;;;;5022387;28;20017;-40
2021/10/22 10:42:17;;;;;;;15.00;6.85;;;;;;;;;;5022670;28;20021;-42
2021/10/22 10:44:44;;;;;;;13.00;6.78;;;;;;;;;;5021132;28;20033;-40
2021/10/22 10:47:28;;;;;;;25.45;10.88;;;;;;;;;;5021160;28;20022;-41
2021/10/22 10:49:54;;;;;;;19.35;9.70;;;;;;;;;;5021355;28;21660;-41
2021/10/22 10:52:42;;;;;;;17.50;7.95;;;;;;;;;;5021232;28;20532;-40
2021/10/22 10:55:13;;;;;;;14.55;9.10;;;;;;;;;;5021541;28;20043;-41
2021/10/22 10:57:49;;;;;;;16.15;9.75;;;;;;;;;;5021230;28;20144;-41
2021/10/22 11:00:15;;;;;;;13.90;8.13;;;;;;;;;;5021304;28;20505;-40
2021/10/22 11:03:04;;;;;;;14.45;10.57;;;;;;;;;;5020744;28;20347;-40
2021/10/22 11:05:46;;;;;;;18.35;8.88;;;;;;;;;;5021482;28;20025;-40
2021/10/22 11:08:15;;;;;;;16.63;9.80;;;;;;;;;;5021191;28;20079;-41
2021/10/22 11:11:00;;;;;;;24.88;14.13;;;;;;;;;;5022189;28;20021;-41
2021/10/22 11:13:48;;;;;;;24.30;13.38;;;;;;;;;;5022850;28;20685;-41
2021/10/22 11:19:04;;;;;;;23.02;12.13;;;;;;;;;;5021117;28;20026;-41
2021/10/22 11:21:33;;;;;;;22.30;12.98;;;;;;;;;;5021174;28;20028;-40
2021/10/22 11:24:00;;;;;;;20.60;11.32;;;;;;;;;;5021999;28;20040;-41
2021/10/22 11:26:27;;;;;;;21.60;11.57;;;;;;;;;;5020996;28;20460;-39
2021/10/22 11:28:55;;;;;;;22.23;12.57;;;;;;;;;;5020820;28;20116;-39
2021/10/22 11:31:40;;;;;;;18.00;11.70;;;;;;;;;;5021921;28;20029;-39
2021/10/22 11:34:10;;;;;;;18.98;11.32;;;;;;;;;;5022052;28;20434;-39
2021/10/22 11:36:37;;;;;;;26.65;15.75;;;;;;;;;;5020583;28;20604;-40
2021/10/22 11:39:03;;;;;;;29.85;14.68;;;;;;;;;;5020609;28;20063;-40
2021/10/22 11:41:29;;;;;;;19.55;11.20;;;;;;;;;;5021764;28;20038;-40
2021/10/22 11:44:08;;;;;;;32.03;17.10;;;;;;;;;;5020397;28;20104;-40
2021/10/22 11:46:41;;;;;;;19.10;11.55;;;;;;;;;;5020462;28;20141;-40
2021/10/22 11:49:07;;;;;;;17.33;10.60;;;;;;;;;;5020637;28;20029;-40
2021/10/22 11:51:33;;;;;;;25.23;14.63;;;;;;;;;;5020682;28;21075;-41
2021/10/22 11:53:59;;;;;;;25.45;14.75;;;;;;;;;;5020683;28;20037;-40
2021/10/22 11:56:28;;;;;;;24.35;14.55;;;;;;;;;;5020063;28;20033;-40
2021/10/22 11:58:55;;;;;;;29.70;16.55;;;;;;;;;;5020234;28;20842;-42
2021/10/22 12:01:22;;;;;;;16.08;9.90;;;;;;;;;;5021413;28;20269;-39
2021/10/22 12:03:55;;;;;;;19.45;11.55;;;;;;;;;;5020810;28;20163;-41
2021/10/22 12:06:22;;;;;;;19.92;11.60;;;;;;;;;;5020427;28;20018;-40
2021/10/22 12:08:51;;;;;;;27.52;13.27;;;;;;;;;;5020446;28;20576;-40
2021/10/22 12:11:19;;;;;;;26.85;14.63;;;;;;;;;;5021688;28;20025;-40
2021/10/22 12:13:45;;;;;;;18.00;11.40;;;;;;;;;;5021641;28;20036;-42
2021/10/22 12:16:15;;;;;;;25.45;15.63;;;;;;;;;;5023922;28;20032;-39
2021/10/22 12:18:43;;;;;;;16.10;11.45;;;;;;;;;;5023819;28;20052;-41
2021/10/22 12:21:10;;;;;;;18.33;10.57;;;;;;;;;;5024099;28;20493;-40
2021/10/22 12:23:37;;;;;;;18.20;10.25;;;;;;;;;;5024068;28;20029;-38
2021/10/22 12:26:04;;;;;;;20.10;11.88;;;;;;;;;;5024909;28;20098;-40
2021/10/22 12:28:30;;;;;;;23.35;12.40;;;;;;;;;;5025261;28;20033;-38
2021/10/22 12:31:09;;;;;;;18.75;12.73;;;;;;;;;;5023963;28;20128;-38
2021/10/22 12:33:35;;;;;;;30.42;17.17;;;;;;;;;;5024659;28;20021;-38
2021/10/22 12:36:16;;;;;;;25.45;15.27;;;;;;;;;;5023989;28;20112;-39
2021/10/22 12:38:42;;;;;;;;;;;;;;;;;;5024233;28;20029;-37
2021/10/22 12:41:12;;;;;;;26.40;14.65;;;;;;;;;;5023735;28;19982;-42
2021/10/22 12:43:38;;;;;;;22.60;13.75;;;;;;;;;;5024704;28;20128;-42
2021/10/22 12:46:05;;;;;;;16.45;11.77;;;;;;;;;;5024058;28;20055;-40
2021/10/22 12:48:36;;;;;;;22.90;15.50;;;;;;;;;;5023293;28;20021;-42
2021/10/22 12:51:04;;;;;;;27.10;17.02;;;;;;;;;;5024696;28;20033;-41
2021/10/22 12:53:33;;;;;;;22.88;13.10;;;;;;;;;;5024880;28;20079;-42
2021/10/22 12:56:03;;;;;;;15.00;10.70;;;;;;;;;;5024489;28;20037;-42
2021/10/22 12:58:29;;;;;;;13.97;9.80;;;;;;;;;;5023746;28;20040;-40
2021/10/22 13:01:22;;;;;;;15.98;10.82;;;;;;;;;;5023345;28;20481;-40
2021/10/22 13:03:57;;;;;;;19.30;12.90;;;;;;;;;;5023111;28;20040;-40
2021/10/22 13:06:30;;;;;;;17.17;10.73;;;;;;;;;;5024507;28;20088;-40
2021/10/22 13:09:19;;;;;;;20.73;13.43;;;;;;;;;;5023267;28;20059;-39
2021/10/22 13:22:17;;;;;;;18.33;12.45;;;;;;;;;;5026692;28;20454;-41
2021/10/22 13:24:43;;;;;;;18.83;12.10;;;;;;;;;;5023357;28;20041;-40
2021/10/22 13:27:09;;;;;;;20.23;12.75;;;;;;;;;;5022586;28;20037;-39
2021/10/22 13:29:35;;;;;;;16.95;11.60;;;;;;;;;;5023182;28;20167;-39
2021/10/22 13:32:02;;;;;;;12.93;9.63;;;;;;;;;;5022289;28;20545;-38
2021/10/22 13:34:29;;;;;;;14.30;10.85;;;;;;;;;;5022764;28;20040;-39
2021/10/22 13:36:55;;;;;;;25.15;16.35;;;;;;;;;;5022481;28;20418;-40
2021/10/22 13:39:21;;;;;;;16.60;12.00;;;;;;;;;;5024832;28;20128;-38
2021/10/22 13:41:47;;;;;;;14.52;10.00;;;;;;;;;;5024487;28;20029;-41
2021/10/22 13:44:13;;;;;;;20.58;13.23;;;;;;;;;;5022576;28;20070;-38
2021/10/22 13:46:40;;;;;;;13.85;11.00;;;;;;;;;;5023210;28;20394;-39
2021/10/22 13:49:07;;;;;;;17.75;10.32;;;;;;;;;;5022735;28;20036;-39
2021/10/22 13:51:34;;;;;;;15.90;11.18;;;;;;;;;;5023174;28;20091;-39
2021/10/22 13:54:00;;;;;;;15.68;9.82;;;;;;;;;;5023942;28;20053;-39
2021/10/22 13:56:26;;;;;;;16.98;11.35;;;;;;;;;;5023613;28;20038;-40
2021/10/22 13:58:52;;;;;;;16.17;10.75;;;;;;;;;;5023024;28;20458;-40
2021/10/22 14:01:19;;;;;;;15.38;9.65;;;;;;;;;;5023419;28;20017;-41
2021/10/22 14:03:45;;;;;;;16.20;9.25;;;;;;;;;;5023856;28;20040;-40
2021/10/22 14:06:12;;;;;;;14.85;10.13;;;;;;;;;;5022045;28;20026;-41
2021/10/22 14:08:38;;;;;;;15.27;10.93;;;;;;;;;;5022958;28;20082;-39
2021/10/22 14:11:06;;;;;;;97.68;56.75;;;;;;;;;;5022851;28;20105;-45
2021/10/22 14:13:41;;;;;;;34.53;21.60;;;;;;;;;;5023191;28;20025;-40
2021/10/22 14:29:45;;;;;;;29.25;16.95;;;;;;;;;;5029480;28;20524;-40
2021/10/22 14:32:13;;;;;;;25.48;14.60;;;;;;;;;;5028590;28;20033;-40
2021/10/22 14:34:39;;;;;;;23.35;13.90;;;;;;;;;;5031106;28;20551;-40
2021/10/22 14:37:05;;;;;;;26.98;15.63;;;;;;;;;;5031647;28;20033;-43
2021/10/22 14:39:34;;;;;;;30.42;16.45;;;;;;;;;;5031423;28;20029;-41
2021/10/22 14:42:05;;;;;;;47.40;24.83;;;;;;;;;;5031769;28;20033;-40
2021/10/22 14:44:35;;;;;;;43.00;26.52;;;;;;;;;;5029050;28;20386;-41
2021/10/22 14:47:24;;;;;;;51.70;30.85;;;;;;;;;;5030719;28;20033;-41
2021/10/22 14:49:51;;;;;;;39.65;22.08;;;;;;;;;;5030948;28;20029;-41
2021/10/22 14:52:35;;;;;;;53.70;30.02;;;;;;;;;;5031180;28;20037;-41
2021/10/22 14:55:12;;;;;;;59.70;32.55;;;;;;;;;;5029017;28;20120;-40
2021/10/22 14:57:38;;;;;;;41.05;25.00;;;;;;;;;;5036483;28;20116;-42
2021/10/22 15:00:05;;;;;;;44.53;26.25;;;;;;;;;;5052548;28;20068;-42
2021/10/22 15:02:32;;;;;;;58.88;32.70;;;;;;;;;;5053121;28;20529;-42